Time;durP1;ratioP1;P1;durP2;ratioP2;P2;SDS_P1;SDS_P2;PMS_P1;PMS_P2;Temp;Humidity;BMP_temperature;BMP_pressure;BME280_temperature;BME280_humidity;BME280_pressure;Samples;Min_cycle;Max_cycle;Signal;HPM_P1;HPM_P2
2023/05/27 03:28:59;;;;;;;3.17;0.82;;;14.30;51.80;;;;;;4946549;28;20410;-67
2023/05/27 03:31:27;;;;;;;3.22;1.00;;;14.30;51.20;;;;;;4950356;28;20047;-67
2023/05/27 03:33:54;;;;;;;1.75;0.63;;;14.30;51.20;;;;;;4952033;28;20035;-67
2023/05/27 03:36:22;;;;;;;3.60;0.90;;;14.30;51.20;;;;;;4934661;28;20062;-68
2023/05/27 03:38:49;;;;;;;3.47;1.73;;;14.40;51.10;;;;;;4951054;28;20453;-67
2023/05/27 03:41:16;;;;;;;2.20;1.50;;;14.30;51.60;;;;;;4953089;28;20043;-67
2023/05/27 03:43:44;;;;;;;1.92;1.17;;;14.40;51.80;;;;;;4938277;28;20039;-68
2023/05/27 03:46:12;;;;;;;1.63;1.10;;;14.40;51.90;;;;;;4952190;28;20117;-68
2023/05/27 03:48:39;;;;;;;2.75;1.10;;;14.40;51.70;;;;;;4950437;28;20043;-68
2023/05/27 03:51:06;;;;;;;3.05;1.10;;;14.40;51.60;;;;;;4940306;28;20039;-68
2023/05/27 03:53:35;;;;;;;4.03;1.00;;;14.40;51.30;;;;;;4932978;28;20035;-68
2023/05/27 03:56:02;;;;;;;2.83;1.00;;;14.40;51.20;;;;;;4951074;29;20126;-66
2023/05/27 03:58:30;;;;;;;4.05;1.20;;;14.50;51.50;;;;;;4959242;28;20453;-67
2023/05/27 04:00:57;;;;;;;1.33;0.80;;;14.50;51.30;;;;;;4949534;28;20039;-65
2023/05/27 04:03:25;;;;;;;2.13;0.82;;;14.50;51.20;;;;;;4957470;28;20134;-65
2023/05/27 04:05:53;;;;;;;2.15;1.00;;;14.50;50.90;;;;;;4948621;28;21366;-65
2023/05/27 04:08:22;;;;;;;3.00;0.82;;;14.50;50.70;;;;;;4937975;28;20440;-64
2023/05/27 04:10:49;;;;;;;2.45;1.02;;;14.60;50.80;;;;;;4950616;28;20043;-66
2023/05/27 04:13:17;;;;;;;1.95;1.20;;;14.60;51.10;;;;;;4953476;28;20035;-65
2023/05/27 04:15:44;;;;;;;3.00;1.17;;;14.60;51.20;;;;;;4951309;28;20055;-67
2023/05/27 04:18:12;;;;;;;3.03;0.98;;;14.70;51.60;;;;;;4950670;28;20449;-67
2023/05/27 04:20:41;;;;;;;1.98;1.00;;;14.70;51.30;;;;;;4951162;28;20445;-67
2023/05/27 04:23:10;;;;;;;5.35;1.20;;;14.70;51.30;;;;;;4957564;28;20057;-67
2023/05/27 04:25:39;;;;;;;2.70;0.80;;;14.70;50.80;;;;;;4942532;28;20129;-66
2023/05/27 04:30:53;;;;;;;1.92;1.00;;;14.70;50.30;;;;;;4950586;28;20517;-67
2023/05/27 04:33:21;;;;;;;1.58;0.88;;;14.70;50.10;;;;;;4934310;29;20075;-67
2023/05/27 04:35:48;;;;;;;0.98;0.80;;;14.70;49.90;;;;;;4956815;28;20110;-68
2023/05/27 04:38:20;;;;;;;2.05;0.90;;;14.70;50.00;;;;;;4956932;29;20031;-66
2023/05/27 04:40:53;;;;;;;1.02;0.77;;;14.70;50.60;;;;;;4955013;29;20115;-67
2023/05/27 04:43:20;;;;;;;2.60;0.98;;;14.70;50.60;;;;;;4948447;29;20043;-68
2023/05/27 04:45:48;;;;;;;1.20;0.63;;;14.60;51.10;;;;;;4952901;28;20035;-67
2023/05/27 04:48:16;;;;;;;4.60;1.17;;;14.60;51.30;;;;;;4974877;28;20038;-67
2023/05/27 04:50:43;;;;;;;2.55;0.98;;;14.60;51.20;;;;;;4961518;28;20039;-69
2023/05/27 04:53:10;;;;;;;3.03;0.93;;;14.60;51.00;;;;;;4956892;29;20454;-70
2023/05/27 04:55:38;;;;;;;1.05;0.82;;;14.60;51.20;;;;;;4955778;28;20042;-72
2023/05/27 04:58:06;;;;;;;3.42;1.05;;;14.70;51.10;;;;;;4956237;28;20098;-69
2023/05/27 05:00:38;;;;;;;2.45;0.90;;;14.70;50.90;;;;;;4955473;28;20035;-68
2023/05/27 05:03:07;;;;;;;1.77;0.77;;;14.70;51.00;;;;;;4954552;28;20401;-69
2023/05/27 05:05:34;;;;;;;2.28;0.90;;;14.70;51.30;;;;;;4943980;28;20049;-67
2023/05/27 05:08:02;;;;;;;3.33;0.90;;;14.70;51.40;;;;;;4938155;29;20050;-68
2023/05/27 05:10:30;;;;;;;0.85;0.70;;;14.70;51.40;;;;;;4950034;29;20043;-68
2023/05/27 05:12:57;;;;;;;1.88;0.80;;;14.80;51.80;;;;;;4953940;28;20055;-68
2023/05/27 05:15:25;;;;;;;3.65;1.00;;;14.80;52.30;;;;;;4953489;28;20046;-68
2023/05/27 05:17:52;;;;;;;1.77;0.70;;;14.70;52.10;;;;;;4953623;28;20043;-68
2023/05/27 05:20:20;;;;;;;1.67;0.70;;;14.80;52.10;;;;;;4945197;28;20115;-68
2023/05/27 05:22:48;;;;;;;2.38;1.00;;;14.70;52.20;;;;;;4950805;29;20550;-68
2023/05/27 05:25:15;;;;;;;2.47;1.17;;;14.80;52.60;;;;;;4953118;28;20126;-67
2023/05/27 05:27:43;;;;;;;2.33;0.88;;;14.70;53.10;;;;;;4953063;28;20486;-67
2023/05/27 05:30:11;;;;;;;2.80;0.80;;;14.70;54.30;;;;;;4953188;29;20042;-67
2023/05/27 05:32:38;;;;;;;4.57;0.93;;;14.70;55.00;;;;;;4953389;29;20039;-68
2023/05/27 05:35:06;;;;;;;2.25;1.00;;;14.70;55.40;;;;;;4961912;28;20406;-68
2023/05/27 05:37:33;;;;;;;3.45;0.90;;;14.70;56.90;;;;;;4970802;28;20050;-67
2023/05/27 05:40:01;;;;;;;1.52;0.80;;;14.60;57.60;;;;;;4953658;28;20537;-67
2023/05/27 05:42:28;;;;;;;1.10;0.80;;;14.70;57.20;;;;;;4953388;29;20043;-67
2023/05/27 05:44:56;;;;;;;1.00;0.70;;;14.60;57.60;;;;;;4953027;28;20585;-67
2023/05/27 05:47:23;;;;;;;2.65;1.20;;;14.60;57.50;;;;;;4952838;28;20050;-67
2023/05/27 05:49:50;;;;;;;2.80;0.75;;;14.60;57.30;;;;;;4953453;29;20043;-67
2023/05/27 05:52:18;;;;;;;1.08;0.70;;;14.60;57.10;;;;;;4963964;28;20129;-67
2023/05/27 05:54:45;;;;;;;1.23;0.88;;;14.50;57.20;;;;;;4972218;28;20066;-67
2023/05/27 05:57:13;;;;;;;2.25;0.98;;;14.60;57.20;;;;;;4956521;28;20055;-68
2023/05/27 05:59:40;;;;;;;1.95;0.90;;;14.50;58.10;;;;;;4935943;28;20174;-68
2023/05/27 12:12:21;;;;;;;5.57;3.95;;;11.20;66.40;;;;;;4951538;28;20126;-68
2023/05/27 12:14:48;;;;;;;6.97;4.03;;;11.10;66.20;;;;;;4936499;29;20426;-67
2023/05/27 12:17:16;;;;;;;5.55;3.70;;;11.00;66.90;;;;;;4953139;28;20043;-67
2023/05/27 12:19:43;;;;;;;5.35;3.70;;;11.00;67.00;;;;;;4957822;28;20498;-67
2023/05/27 12:22:11;;;;;;;6.95;3.30;;;10.90;66.70;;;;;;4951976;28;20043;-68
2023/05/27 12:24:38;;;;;;;6.03;3.00;;;10.90;66.50;;;;;;4957996;28;20031;-68
2023/05/27 12:27:06;;;;;;;6.25;2.60;;;11.00;66.20;;;;;;4962088;28;20371;-68
2023/05/27 12:29:34;;;;;;;4.93;2.78;;;10.90;66.30;;;;;;4952822;28;20039;-68
2023/05/27 12:32:02;;;;;;;5.38;2.78;;;11.00;66.10;;;;;;4952722;28;20512;-68
2023/05/27 12:34:29;;;;;;;5.85;2.85;;;11.00;65.70;;;;;;4953745;29;20035;-68
2023/05/27 12:36:57;;;;;;;9.18;2.80;;;11.00;65.50;;;;;;4953601;28;20442;-68
2023/05/27 12:39:24;;;;;;;5.07;2.97;;;11.00;65.30;;;;;;4953760;28;20040;-67
2023/05/27 12:41:52;;;;;;;5.22;3.42;;;11.10;64.90;;;;;;4952610;28;20085;-67
2023/05/27 12:44:19;;;;;;;5.13;2.80;;;11.00;64.70;;;;;;4957342;28;20077;-67
2023/05/27 12:46:47;;;;;;;6.22;2.90;;;11.00;64.50;;;;;;4957812;28;20090;-67
2023/05/27 12:49:14;;;;;;;5.93;3.20;;;11.00;64.50;;;;;;4953087;28;20110;-67
2023/05/27 12:51:42;;;;;;;4.60;2.97;;;11.00;64.50;;;;;;4967309;28;20078;-67
2023/05/27 12:54:11;;;;;;;5.97;2.97;;;11.00;64.50;;;;;;4956545;29;20046;-67
2023/05/27 12:56:38;;;;;;;6.80;3.30;;;11.00;64.60;;;;;;4956688;28;20043;-66
2023/05/27 12:59:06;;;;;;;5.85;3.00;;;11.00;64.70;;;;;;4956812;28;20042;-67
2023/05/27 13:01:34;;;;;;;6.38;3.00;;;11.00;64.70;;;;;;4955909;28;20044;-67
2023/05/27 13:04:01;;;;;;;4.47;2.80;;;10.90;64.50;;;;;;4975241;28;20049;-69
2023/05/27 13:06:28;;;;;;;10.25;2.95;;;10.90;64.30;;;;;;4964044;28;20057;-69
2023/05/27 13:08:56;;;;;;;7.18;2.97;;;10.90;64.50;;;;;;4956933;28;20154;-69
2023/05/27 13:11:23;;;;;;;7.30;2.90;;;10.90;64.50;;;;;;4974097;28;20059;-67
2023/05/27 13:13:51;;;;;;;5.13;3.65;;;10.90;64.30;;;;;;4938672;29;20421;-66
2023/05/27 13:16:18;;;;;;;7.20;3.15;;;11.00;64.40;;;;;;4955606;28;20048;-67
2023/05/27 13:18:46;;;;;;;5.47;3.10;;;10.90;64.20;;;;;;4939283;29;20547;-67
2023/05/27 13:21:13;;;;;;;4.43;2.45;;;10.90;64.30;;;;;;4956179;28;20409;-67
2023/05/27 13:23:41;;;;;;;4.70;2.50;;;10.90;64.00;;;;;;4955591;28;20128;-67
2023/05/27 13:26:08;;;;;;;5.55;2.90;;;10.90;63.80;;;;;;4955976;28;20038;-67
2023/05/27 13:28:36;;;;;;;5.47;2.83;;;11.00;63.90;;;;;;4956251;28;20118;-67
2023/05/27 13:31:04;;;;;;;5.75;2.67;;;10.90;64.10;;;;;;4972393;28;20035;-67
2023/05/27 13:33:32;;;;;;;3.65;2.25;;;11.00;64.20;;;;;;4938241;28;20043;-67
2023/05/27 13:35:59;;;;;;;3.72;2.42;;;10.90;63.90;;;;;;4955651;28;20027;-67
2023/05/27 13:38:26;;;;;;;4.38;2.80;;;10.90;63.60;;;;;;4955316;28;20395;-67
2023/05/27 13:40:54;;;;;;;6.88;3.80;;;10.90;63.20;;;;;;4956191;29;20032;-67
2023/05/27 13:43:22;;;;;;;6.22;4.03;;;10.90;63.10;;;;;;4956091;28;20054;-67
2023/05/27 13:45:49;;;;;;;4.43;3.83;;;10.90;63.30;;;;;;4965702;28;20031;-68
2023/05/27 13:48:17;;;;;;;7.82;3.22;;;10.90;63.40;;;;;;4955242;28;20031;-67
2023/05/27 13:50:44;;;;;;;9.73;3.90;;;11.00;63.50;;;;;;4938276;29;20035;-67
2023/05/27 13:53:12;;;;;;;4.90;3.17;;;11.00;64.10;;;;;;4957075;28;20393;-67
2023/05/27 13:55:39;;;;;;;6.28;4.80;;;11.00;63.90;;;;;;4955759;29;20035;-67
2023/05/27 13:58:07;;;;;;;6.57;4.82;;;10.90;64.00;;;;;;4954943;28;20118;-67
2023/05/27 14:00:34;;;;;;;6.78;3.70;;;10.90;64.80;;;;;;4954712;28;20038;-67
2023/05/27 14:03:02;;;;;;;7.80;4.70;;;10.90;64.30;;;;;;4936436;29;20090;-67
2023/05/27 14:05:29;;;;;;;9.85;7.03;;;10.90;64.10;;;;;;4954731;28;20093;-67
2023/05/27 14:07:57;;;;;;;6.72;4.68;;;10.90;63.90;;;;;;4948390;28;20054;-67
2023/05/27 14:10:24;;;;;;;5.47;3.22;;;10.90;64.10;;;;;;4954756;28;20043;-67
2023/05/27 14:12:52;;;;;;;2.40;1.70;;;10.90;64.00;;;;;;4955330;28;20046;-67
2023/05/27 14:15:19;;;;;;;4.55;2.10;;;10.90;63.90;;;;;;4955860;29;20038;-67
2023/05/27 14:17:47;;;;;;;4.75;1.95;;;10.90;64.10;;;;;;4955347;28;20043;-67
2023/05/27 14:20:14;;;;;;;3.33;1.83;;;10.80;64.50;;;;;;4955548;29;20035;-67
2023/05/27 14:22:42;;;;;;;3.70;1.88;;;10.80;65.00;;;;;;4937597;29;20058;-67
2023/05/27 14:25:09;;;;;;;3.20;1.70;;;10.80;65.10;;;;;;4955542;29;20043;-67
2023/05/27 14:27:37;;;;;;;2.72;1.77;;;10.70;65.50;;;;;;4938477;28;20046;-67
2023/05/27 14:30:05;;;;;;;3.15;2.10;;;10.70;65.60;;;;;;4955254;29;20042;-67
2023/05/27 14:32:33;;;;;;;7.82;4.28;;;10.70;65.50;;;;;;4957951;28;20079;-67
2023/05/27 14:35:00;;;;;;;5.25;3.10;;;10.70;65.40;;;;;;4938145;29;20042;-67
2023/05/27 14:37:27;;;;;;;5.38;2.17;;;10.70;65.90;;;;;;4938030;28;20070;-67
2023/05/27 14:39:55;;;;;;;6.97;2.20;;;10.70;66.40;;;;;;4955299;29;20043;-67
2023/05/27 14:42:22;;;;;;;2.88;1.63;;;10.70;65.90;;;;;;4953535;28;20105;-67
2023/05/27 14:44:50;;;;;;;2.67;1.92;;;10.70;65.50;;;;;;4955054;28;20031;-67
2023/05/27 14:47:21;;;;;;;4.80;1.73;;;10.70;65.50;;;;;;4949296;28;20027;-67
2023/05/27 14:49:49;;;;;;;2.75;1.90;;;10.70;65.50;;;;;;4955145;29;20106;-67
2023/05/27 14:52:16;;;;;;;4.10;2.28;;;10.70;65.40;;;;;;4953377;28;20039;-67
2023/05/27 14:54:43;;;;;;;3.83;1.92;;;10.70;65.40;;;;;;4954880;29;20043;-67
2023/05/27 14:57:11;;;;;;;6.30;2.13;;;10.70;65.40;;;;;;4953898;28;20094;-67
2023/05/27 14:59:38;;;;;;;5.35;1.88;;;10.70;65.30;;;;;;4955465;28;20086;-67
2023/05/27 15:02:06;;;;;;;6.20;1.80;;;10.70;65.20;;;;;;4953770;28;20043;-67
2023/05/27 15:04:33;;;;;;;3.40;2.08;;;10.70;65.20;;;;;;4954502;29;20079;-66
2023/05/27 15:07:00;;;;;;;3.92;2.00;;;10.70;65.20;;;;;;4953715;28;20047;-67
2023/05/27 15:09:28;;;;;;;3.25;1.90;;;10.70;65.50;;;;;;4953418;28;20039;-67
2023/05/27 15:11:55;;;;;;;4.03;2.17;;;10.70;65.70;;;;;;4953534;28;20047;-67
2023/05/27 15:14:23;;;;;;;5.20;2.03;;;10.60;65.40;;;;;;4953947;28;20035;-67
2023/05/27 15:16:50;;;;;;;4.45;2.10;;;10.60;65.30;;;;;;4953627;28;20142;-67
2023/05/27 15:19:18;;;;;;;5.18;2.22;;;10.60;65.30;;;;;;4954580;28;20110;-67
2023/05/27 15:21:45;;;;;;;5.50;2.20;;;10.60;65.20;;;;;;4954373;28;20469;-67
2023/05/27 15:24:12;;;;;;;4.50;2.22;;;10.60;65.20;;;;;;4936641;29;20035;-67
2023/05/27 15:26:40;;;;;;;2.72;1.77;;;10.60;65.30;;;;;;4953799;28;20053;-67
2023/05/27 15:29:08;;;;;;;3.38;1.73;;;10.60;65.20;;;;;;4954693;28;20036;-67
2023/05/27 15:31:35;;;;;;;3.03;1.90;;;10.60;65.10;;;;;;4956121;28;20092;-67
2023/05/27 15:34:03;;;;;;;4.32;2.13;;;10.50;65.70;;;;;;4955593;28;20039;-69
2023/05/27 15:36:31;;;;;;;4.72;1.80;;;10.50;65.50;;;;;;4928910;29;20052;-67
2023/05/27 15:38:59;;;;;;;5.95;2.08;;;10.50;65.40;;;;;;4935249;29;20514;-67
2023/05/27 15:41:26;;;;;;;3.38;1.80;;;10.50;65.40;;;;;;4965610;28;20489;-67
2023/05/27 15:43:54;;;;;;;3.63;1.85;;;10.50;65.20;;;;;;4956959;28;20039;-67
2023/05/27 15:46:22;;;;;;;4.35;2.03;;;10.50;65.20;;;;;;4957986;28;20060;-67
2023/05/27 15:48:49;;;;;;;2.80;1.95;;;10.40;64.70;;;;;;4973341;28;20039;-69
2023/05/27 15:51:17;;;;;;;5.95;1.92;;;10.40;64.90;;;;;;4971501;28;20039;-69
2023/05/27 15:53:45;;;;;;;2.83;1.80;;;10.40;64.90;;;;;;4953462;28;20417;-67
2023/05/27 15:56:12;;;;;;;3.10;1.85;;;10.40;64.90;;;;;;4953085;28;20054;-69
2023/05/27 15:58:40;;;;;;;3.15;1.80;;;10.40;65.10;;;;;;4954010;28;20042;-67
2023/05/27 16:01:07;;;;;;;3.33;1.90;;;10.40;64.90;;;;;;4954173;28;20077;-66
2023/05/27 16:03:35;;;;;;;4.53;1.92;;;10.40;64.80;;;;;;4952523;28;20544;-67
2023/05/27 16:06:05;;;;;;;3.47;1.98;;;10.40;64.90;;;;;;4952917;28;20066;-67
2023/05/27 16:08:33;;;;;;;3.08;1.85;;;10.30;65.10;;;;;;4954073;28;20035;-66
2023/05/27 16:11:00;;;;;;;3.65;1.90;;;10.30;65.10;;;;;;4949090;28;20592;-67
2023/05/27 16:13:27;;;;;;;5.18;1.90;;;10.30;65.10;;;;;;4961339;28;20074;-66
2023/05/27 16:15:56;;;;;;;4.63;1.80;;;10.30;65.10;;;;;;4952575;29;20039;-67
2023/05/27 16:18:23;;;;;;;2.33;1.60;;;10.30;65.10;;;;;;4952320;28;20039;-69
2023/05/27 16:20:51;;;;;;;3.30;2.20;;;10.30;65.30;;;;;;4954044;29;20027;-67
2023/05/27 16:23:19;;;;;;;3.85;2.03;;;10.30;65.40;;;;;;4952938;28;20031;-69
2023/05/27 16:25:49;;;;;;;2.97;1.63;;;10.30;65.30;;;;;;4957383;28;20035;-66
2023/05/27 16:28:17;;;;;;;3.92;1.73;;;10.30;65.40;;;;;;4955550;28;20453;-67
2023/05/27 16:30:44;;;;;;;3.42;1.73;;;10.20;65.60;;;;;;4963015;28;20086;-69
2023/05/27 16:33:12;;;;;;;5.43;1.90;;;10.20;65.80;;;;;;4976572;28;20039;-66
2023/05/27 16:35:40;;;;;;;7.68;1.88;;;10.20;65.90;;;;;;4973225;28;20041;-66
2023/05/27 16:38:07;;;;;;;3.28;1.98;;;10.20;66.20;;;;;;4955255;28;20050;-69
2023/05/27 16:40:34;;;;;;;3.88;1.98;;;10.20;66.40;;;;;;4955389;28;20070;-69
2023/05/27 16:43:02;;;;;;;3.35;1.85;;;10.20;66.50;;;;;;4957329;29;20079;-68
2023/05/27 16:45:30;;;;;;;4.13;1.90;;;10.10;66.90;;;;;;4957361;29;20083;-68
2023/05/27 16:47:57;;;;;;;4.15;1.80;;;10.10;67.20;;;;;;4955905;28;20135;-68
2023/05/27 16:50:25;;;;;;;3.80;1.73;;;10.10;67.40;;;;;;4957245;28;20398;-68
2023/05/27 16:52:52;;;;;;;3.65;1.92;;;10.10;67.70;;;;;;4957049;29;20032;-68
2023/05/27 16:55:21;;;;;;;3.17;2.00;;;10.00;67.90;;;;;;4956906;28;20032;-68
2023/05/27 16:57:48;;;;;;;3.10;1.90;;;10.00;68.10;;;;;;4956528;28;20429;-68
2023/05/27 17:00:16;;;;;;;3.22;1.90;;;10.10;68.10;;;;;;4956848;28;20462;-68
2023/05/27 17:02:43;;;;;;;2.10;1.70;;;10.00;68.40;;;;;;4964918;28;20039;-68
2023/05/27 17:05:11;;;;;;;10.68;2.00;;;10.00;68.50;;;;;;4976119;28;20089;-68
2023/05/27 17:07:38;;;;;;;6.20;1.90;;;9.90;68.50;;;;;;4967753;28;20039;-69
2023/05/27 17:10:06;;;;;;;4.45;2.15;;;9.90;68.70;;;;;;4959714;28;20034;-68
2023/05/27 17:12:33;;;;;;;3.47;2.03;;;9.90;68.80;;;;;;4976069;28;20049;-68
2023/05/27 17:15:01;;;;;;;2.47;1.95;;;9.80;69.00;;;;;;4962022;28;20494;-68
2023/05/27 17:17:29;;;;;;;2.65;1.98;;;9.80;68.80;;;;;;4955845;28;20454;-69
2023/05/27 17:19:57;;;;;;;5.07;2.03;;;9.80;68.70;;;;;;4959646;28;20042;-68
2023/05/27 17:22:24;;;;;;;5.53;1.95;;;9.80;68.50;;;;;;4972494;28;20027;-68
2023/05/27 17:24:52;;;;;;;6.85;2.10;;;9.80;68.40;;;;;;4955924;28;20031;-68
2023/05/27 17:27:19;;;;;;;2.90;1.80;;;9.70;68.60;;;;;;4956140;28;20410;-68
2023/05/27 17:29:47;;;;;;;3.20;1.80;;;9.70;68.60;;;;;;4956298;28;20122;-68
2023/05/27 17:32:15;;;;;;;6.07;1.90;;;9.70;68.80;;;;;;4956434;29;20047;-68
2023/05/27 17:34:42;;;;;;;3.17;1.80;;;9.70;68.80;;;;;;4939521;28;20118;-68
2023/05/27 17:37:10;;;;;;;7.20;1.70;;;9.70;68.90;;;;;;4968836;28;20049;-68
2023/05/27 17:39:37;;;;;;;4.72;2.05;;;9.70;69.00;;;;;;4956307;28;20502;-68
2023/05/27 17:42:05;;;;;;;2.40;1.67;;;9.70;69.10;;;;;;4956416;29;20043;-68
2023/05/27 17:44:33;;;;;;;4.22;1.73;;;9.70;69.30;;;;;;4938999;29;20027;-69
2023/05/27 17:47:00;;;;;;;2.97;1.83;;;9.60;69.40;;;;;;4955536;28;20039;-68
2023/05/27 17:49:28;;;;;;;4.13;1.70;;;9.60;69.50;;;;;;4956191;28;20039;-69
2023/05/27 17:51:55;;;;;;;3.88;2.00;;;9.60;69.70;;;;;;4956245;28;20098;-68
2023/05/27 17:54:22;;;;;;;3.88;1.60;;;9.60;69.90;;;;;;4955818;29;20109;-68
2023/05/27 17:56:50;;;;;;;3.30;1.70;;;9.60;69.70;;;;;;4956056;29;20302;-68
2023/05/27 17:59:17;;;;;;;2.88;1.55;;;9.60;69.60;;;;;;4955052;28;20062;-69
2023/05/27 18:01:45;;;;;;;1.98;1.20;;;9.50;69.70;;;;;;4955907;29;20094;-69
2023/05/27 18:04:12;;;;;;;4.07;1.60;;;9.50;69.70;;;;;;4955480;28;20082;-69
2023/05/27 18:06:40;;;;;;;2.88;1.60;;;9.50;69.70;;;;;;4955747;29;20414;-68
2023/05/27 18:09:08;;;;;;;4.45;1.55;;;9.50;69.70;;;;;;4954593;28;20027;-68
2023/05/27 18:11:36;;;;;;;3.53;1.80;;;9.50;69.60;;;;;;4954722;28;20064;-68
2023/05/27 18:14:05;;;;;;;2.65;1.40;;;9.50;69.60;;;;;;4956190;29;20118;-68
2023/05/27 18:16:33;;;;;;;5.10;1.83;;;9.40;69.60;;;;;;4955605;28;20051;-69
2023/05/27 18:19:00;;;;;;;2.17;1.40;;;9.40;69.90;;;;;;4962556;28;20039;-69
2023/05/27 18:21:28;;;;;;;2.85;1.55;;;9.40;70.00;;;;;;4974436;28;20038;-68
2023/05/27 18:23:55;;;;;;;1.65;1.40;;;9.40;69.90;;;;;;4975014;28;20134;-69
2023/05/27 18:26:22;;;;;;;1.48;1.23;;;9.40;69.90;;;;;;4974968;28;20160;-69
2023/05/27 18:28:51;;;;;;;2.47;1.20;;;9.40;69.80;;;;;;4959214;28;20046;-69
2023/05/27 18:31:18;;;;;;;3.35;1.60;;;9.30;69.60;;;;;;4937920;29;20402;-69
2023/05/27 18:33:45;;;;;;;1.38;1.10;;;9.30;69.20;;;;;;4955242;29;20039;-68
2023/05/27 18:36:13;;;;;;;2.13;1.27;;;9.30;69.20;;;;;;4955533;29;20540;-69
2023/05/27 18:38:40;;;;;;;4.40;1.35;;;9.30;69.20;;;;;;4954873;28;20043;-68
2023/05/27 18:41:08;;;;;;;2.03;1.25;;;9.30;68.90;;;;;;4955139;28;20402;-68
2023/05/27 18:43:35;;;;;;;2.20;1.10;;;9.30;68.70;;;;;;4955040;29;20043;-69
2023/05/27 18:46:03;;;;;;;2.80;1.52;;;9.30;68.60;;;;;;4953805;28;20027;-68
2023/05/27 18:48:31;;;;;;;3.47;1.38;;;9.30;68.40;;;;;;4953834;28;20047;-68
2023/05/27 18:50:59;;;;;;;2.75;1.30;;;9.30;68.40;;;;;;4955058;28;20042;-69
2023/05/27 18:53:26;;;;;;;3.85;1.63;;;9.30;68.50;;;;;;4954630;28;20039;-69
2023/05/27 18:55:54;;;;;;;3.45;1.23;;;9.30;68.40;;;;;;4955076;29;20477;-68
2023/05/27 18:58:21;;;;;;;2.97;1.20;;;9.30;68.20;;;;;;4953151;28;20047;-69
2023/05/27 19:00:49;;;;;;;1.60;1.17;;;9.30;68.30;;;;;;4954669;28;20031;-68
2023/05/27 19:03:18;;;;;;;1.58;1.15;;;9.30;68.60;;;;;;4954834;29;20031;-68
2023/05/27 19:05:46;;;;;;;3.05;1.10;;;9.30;68.40;;;;;;4938136;29;20450;-69
2023/05/27 19:08:14;;;;;;;2.55;1.10;;;9.30;68.60;;;;;;4937024;29;20042;-69
2023/05/27 19:10:41;;;;;;;2.58;1.10;;;9.20;69.20;;;;;;4954394;28;20076;-69
2023/05/27 19:13:09;;;;;;;4.00;1.30;;;9.30;68.80;;;;;;4954557;29;20344;-69
2023/05/27 19:15:36;;;;;;;2.00;1.20;;;9.20;68.90;;;;;;4954576;29;20118;-69
2023/05/27 19:18:04;;;;;;;3.63;1.10;;;9.20;69.20;;;;;;4937104;29;20398;-68
2023/05/27 19:20:32;;;;;;;3.28;1.20;;;9.30;69.20;;;;;;4937205;28;20086;-69
2023/05/27 19:22:59;;;;;;;1.73;1.10;;;9.20;69.50;;;;;;4937776;29;20062;-69
2023/05/27 19:25:27;;;;;;;2.53;1.35;;;9.20;69.40;;;;;;4954553;29;20062;-68
2023/05/27 19:27:54;;;;;;;3.67;1.05;;;9.20;69.40;;;;;;4957997;28;20063;-69
2023/05/27 19:30:22;;;;;;;3.33;1.40;;;9.20;69.10;;;;;;4973510;28;20481;-68
2023/05/27 19:32:49;;;;;;;2.78;1.20;;;9.10;70.10;;;;;;4956387;28;20043;-69
2023/05/27 19:35:17;;;;;;;1.80;1.08;;;9.20;69.50;;;;;;4973842;28;20937;-69
2023/05/27 19:37:44;;;;;;;2.63;1.17;;;9.20;69.30;;;;;;4967987;28;20074;-69
2023/05/27 19:40:12;;;;;;;4.35;1.40;;;9.10;70.00;;;;;;4960341;28;20031;-69
2023/05/27 19:42:39;;;;;;;2.88;1.48;;;9.10;69.60;;;;;;4954374;29;20485;-69
2023/05/27 19:45:07;;;;;;;2.33;1.30;;;9.10;69.80;;;;;;4953370;28;20031;-69
2023/05/27 19:47:35;;;;;;;2.67;1.13;;;9.10;69.40;;;;;;4953856;28;20039;-68
2023/05/27 19:50:02;;;;;;;4.03;1.45;;;9.10;69.40;;;;;;4954092;28;20040;-68
2023/05/27 19:52:30;;;;;;;2.20;1.20;;;9.00;69.70;;;;;;4937349;29;20042;-69
2023/05/27 19:55:00;;;;;;;2.92;1.30;;;9.00;69.80;;;;;;4953725;28;20043;-68
2023/05/27 19:57:28;;;;;;;3.95;1.38;;;9.00;69.90;;;;;;4952354;28;20048;-68
2023/05/27 19:59:55;;;;;;;2.45;1.40;;;9.00;70.10;;;;;;4955816;28;20038;-69
2023/05/27 20:02:23;;;;;;;2.30;1.40;;;8.90;70.30;;;;;;4957877;29;20039;-68
2023/05/27 20:04:50;;;;;;;2.58;1.40;;;9.00;70.70;;;;;;4958057;28;20043;-69
2023/05/27 20:07:18;;;;;;;3.00;1.63;;;8.90;70.80;;;;;;4957829;28;20046;-69
2023/05/27 20:09:46;;;;;;;1.48;1.20;;;8.90;70.80;;;;;;4957891;28;20038;-68
2023/05/27 20:12:14;;;;;;;1.42;1.10;;;8.90;71.00;;;;;;4957223;28;20102;-69
2023/05/27 20:14:41;;;;;;;3.63;1.35;;;8.80;70.90;;;;;;4956728;28;20035;-68
2023/05/27 20:17:09;;;;;;;1.50;1.10;;;8.80;71.20;;;;;;4962154;28;20050;-68
2023/05/27 20:19:36;;;;;;;3.55;1.25;;;8.80;71.30;;;;;;4957351;28;20039;-69
2023/05/27 20:22:04;;;;;;;2.63;1.40;;;8.70;71.50;;;;;;4955623;28;20461;-69
2023/05/27 20:24:31;;;;;;;2.22;1.40;;;8.70;71.40;;;;;;4959718;28;20057;-70
2023/05/27 20:26:59;;;;;;;2.05;1.48;;;8.70;71.10;;;;;;4952480;28;20043;-70
2023/05/27 20:29:27;;;;;;;2.45;1.40;;;8.70;71.00;;;;;;4955295;28;20047;-69
2023/05/27 20:31:54;;;;;;;1.70;1.20;;;8.70;70.70;;;;;;4940809;29;20478;-70
2023/05/27 20:34:21;;;;;;;1.85;1.40;;;8.70;70.90;;;;;;4953309;28;20035;-69
2023/05/27 20:36:49;;;;;;;1.70;1.20;;;8.60;70.80;;;;;;4935079;29;20051;-69
2023/05/27 20:39:16;;;;;;;2.47;1.35;;;8.60;71.10;;;;;;4939187;28;20508;-69
2023/05/27 20:41:44;;;;;;;2.17;1.33;;;8.60;71.20;;;;;;4941576;28;20043;-68
2023/05/27 20:44:11;;;;;;;3.22;1.20;;;8.60;71.50;;;;;;4955153;28;20054;-68
2023/05/27 20:46:38;;;;;;;2.95;1.45;;;8.60;71.40;;;;;;4957171;28;20626;-67
2023/05/27 20:49:06;;;;;;;4.05;1.40;;;8.60;71.40;;;;;;4939784;28;20136;-69
2023/05/27 20:51:33;;;;;;;2.50;1.20;;;8.60;71.30;;;;;;4971865;28;20163;-68
2023/05/27 20:54:01;;;;;;;2.45;1.30;;;8.60;70.90;;;;;;4964289;28;20528;-68
2023/05/27 20:56:28;;;;;;;2.35;1.20;;;8.60;70.80;;;;;;4955009;28;20058;-68
2023/05/27 20:58:56;;;;;;;1.42;1.13;;;8.60;70.70;;;;;;4949600;28;20337;-68
2023/05/27 21:01:25;;;;;;;2.78;1.30;;;8.60;70.80;;;;;;4937482;29;20445;-67
2023/05/27 21:03:52;;;;;;;2.78;1.13;;;8.60;70.80;;;;;;4954771;28;20122;-69
2023/05/27 21:06:20;;;;;;;2.50;1.15;;;8.60;71.10;;;;;;4952884;28;20058;-67
2023/05/27 21:08:47;;;;;;;4.28;1.10;;;8.50;71.10;;;;;;4953638;28;20027;-68
2023/05/27 21:11:16;;;;;;;1.63;1.20;;;8.50;71.40;;;;;;4942748;28;20055;-67
2023/05/27 21:13:44;;;;;;;1.73;1.40;;;8.60;71.50;;;;;;4952136;28;20040;-67
2023/05/27 21:16:11;;;;;;;2.03;1.30;;;8.60;71.50;;;;;;4955423;28;20043;-68
2023/05/27 21:18:38;;;;;;;1.77;1.30;;;8.50;72.00;;;;;;4955151;28;20049;-67
2023/05/27 21:21:07;;;;;;;2.20;1.17;;;8.40;72.10;;;;;;4953237;28;20113;-67
2023/05/27 21:23:34;;;;;;;3.22;1.20;;;8.40;72.20;;;;;;4955340;28;20047;-67
2023/05/27 21:26:02;;;;;;;2.58;1.20;;;8.40;72.20;;;;;;4957191;28;20110;-67
2023/05/27 21:28:29;;;;;;;3.65;1.40;;;8.50;72.10;;;;;;4969160;28;20046;-67
2023/05/27 21:30:57;;;;;;;2.38;1.50;;;8.50;72.40;;;;;;4958062;28;20138;-68
2023/05/27 21:33:25;;;;;;;3.08;1.63;;;8.50;72.60;;;;;;4954393;28;20045;-68
2023/05/27 21:35:52;;;;;;;2.83;1.40;;;8.60;72.40;;;;;;4954190;28;20454;-67
2023/05/27 21:38:20;;;;;;;2.92;1.40;;;8.50;72.60;;;;;;4939734;29;20390;-68
2023/05/27 21:40:47;;;;;;;7.13;1.60;;;8.50;72.90;;;;;;4955199;28;20031;-67
2023/05/27 21:43:15;;;;;;;2.72;1.30;;;8.60;72.70;;;;;;4940610;29;20397;-68
2023/05/27 21:45:42;;;;;;;2.40;1.58;;;8.60;72.80;;;;;;4954452;28;20085;-67
2023/05/27 21:48:10;;;;;;;3.40;1.50;;;8.60;72.60;;;;;;4956378;28;20442;-68
2023/05/27 21:50:37;;;;;;;3.20;1.40;;;8.60;72.60;;;;;;4939070;29;20077;-67
2023/05/27 21:53:06;;;;;;;2.60;1.40;;;8.70;72.60;;;;;;4957909;28;20111;-67
2023/05/27 21:55:33;;;;;;;4.28;1.75;;;8.70;72.50;;;;;;4956362;28;20054;-67
